sensor_id;sensor_type;location;lat;lon;timestamp;P1;durP1;ratioP1;P2;durP2;ratioP2
39322;SDS011;25036;53.638;10.134;2022-07-29T00:00:25;3.07;;;1.40;;
39322;SDS011;25036;53.638;10.134;2022-07-29T00:01:25;2.43;;;0.87;;
39322;SDS011;25036;53.638;10.134;2022-07-29T00:02:25;2.23;;;1.20;;
39322;SDS011;25036;53.638;10.134;2022-07-29T00:03:26;3.35;;;0.77;;
39322;SDS011;25036;53.638;10.134;2022-07-29T00:04:26;1.48;;;0.70;;
39322;SDS011;25036;53.638;10.134;2022-07-29T00:05:26;2.57;;;0.83;;
39322;SDS011;25036;53.638;10.134;2022-07-29T00:06:26;2.42;;;0.88;;
39322;SDS011;25036;53.638;10.134;2022-07-29T00:07:26;2.47;;;1.30;;
39322;SDS011;25036;53.638;10.134;2022-07-29T00:08:27;1.17;;;0.77;;
39322;SDS011;25036;53.638;10.134;2022-07-29T00:09:27;2.47;;;0.80;;
39322;SDS011;25036;53.638;10.134;2022-07-29T00:10:27;1.40;;;0.70;;
39322;SDS011;25036;53.638;10.134;2022-07-29T00:11:27;2.22;;;0.90;;
39322;SDS011;25036;53.638;10.134;2022-07-29T00:12:27;2.10;;;0.80;;
39322;SDS011;25036;53.638;10.134;2022-07-29T00:13:28;1.45;;;0.70;;
39322;SDS011;25036;53.638;10.134;2022-07-29T00:14:28;2.17;;;1.07;;
39322;SDS011;25036;53.638;10.134;2022-07-29T00:15:28;2.20;;;0.80;;
39322;SDS011;25036;53.638;10.134;2022-07-29T00:16:28;2.83;;;1.27;;
39322;SDS011;25036;53.638;10.134;2022-07-29T00:17:28;1.80;;;1.00;;
39322;SDS011;25036;53.638;10.134;2022-07-29T00:18:29;2.17;;;0.90;;
39322;SDS011;25036;53.638;10.134;2022-07-29T00:19:29;2.77;;;0.90;;
39322;SDS011;25036;53.638;10.134;2022-07-29T00:20:29;3.42;;;1.02;;
39322;SDS011;25036;53.638;10.134;2022-07-29T00:21:29;1.67;;;0.70;;
39322;SDS011;25036;53.638;10.134;2022-07-29T00:22:29;3.17;;;1.20;;
39322;SDS011;25036;53.638;10.134;2022-07-29T00:23:30;2.70;;;0.88;;
39322;SDS011;25036;53.638;10.134;2022-07-29T00:24:30;2.55;;;0.90;;
39322;SDS011;25036;53.638;10.134;2022-07-29T00:25:30;2.07;;;0.97;;
39322;SDS011;25036;53.638;10.134;2022-07-29T00:26:30;2.72;;;0.95;;
39322;SDS011;25036;53.638;10.134;2022-07-29T00:27:32;2.10;;;0.93;;
39322;SDS011;25036;53.638;10.134;2022-07-29T00:28:32;1.73;;;0.80;;
39322;SDS011;25036;53.638;10.134;2022-07-29T00:29:32;2.07;;;0.70;;
39322;SDS011;25036;53.638;10.134;2022-07-29T00:30:32;2.87;;;0.87;;
39322;SDS011;25036;53.638;10.134;2022-07-29T00:31:32;2.27;;;0.90;;
39322;SDS011;25036;53.638;10.134;2022-07-29T00:32:33;3.80;;;0.97;;
39322;SDS011;25036;53.638;10.134;2022-07-29T00:33:33;1.42;;;0.60;;
39322;SDS011;25036;53.638;10.134;2022-07-29T00:34:33;2.37;;;1.00;;
39322;SDS011;25036;53.638;10.134;2022-07-29T00:35:52;2.55;;;0.75;;
39322;SDS011;25036;53.638;10.134;2022-07-29T00:36:52;1.47;;;0.90;;
39322;SDS011;25036;53.638;10.134;2022-07-29T00:37:52;1.27;;;0.67;;
39322;SDS011;25036;53.638;10.134;2022-07-29T00:38:52;1.67;;;0.80;;
39322;SDS011;25036;53.638;10.134;2022-07-29T00:39:53;3.95;;;1.38;;
39322;SDS011;25036;53.638;10.134;2022-07-29T00:40:53;2.93;;;1.07;;
39322;SDS011;25036;53.638;10.134;2022-07-29T00:41:53;2.83;;;0.80;;
39322;SDS011;25036;53.638;10.134;2022-07-29T00:42:53;2.35;;;1.00;;
39322;SDS011;25036;53.638;10.134;2022-07-29T00:43:53;2.78;;;1.00;;
39322;SDS011;25036;53.638;10.134;2022-07-29T00:44:54;1.70;;;0.90;;
39322;SDS011;25036;53.638;10.134;2022-07-29T00:45:54;2.43;;;0.97;;
39322;SDS011;25036;53.638;10.134;2022-07-29T00:46:54;2.03;;;0.80;;
39322;SDS011;25036;53.638;10.134;2022-07-29T00:47:54;2.13;;;1.00;;
39322;SDS011;25036;53.638;10.134;2022-07-29T00:48:54;2.03;;;0.97;;
39322;SDS011;25036;53.638;10.134;2022-07-29T00:49:54;2.60;;;0.90;;
39322;SDS011;25036;53.638;10.134;2022-07-29T00:50:55;2.90;;;0.97;;
39322;SDS011;25036;53.638;10.134;2022-07-29T00:51:57;1.40;;;0.90;;
39322;SDS011;25036;53.638;10.134;2022-07-29T00:52:57;1.33;;;0.80;;
39322;SDS011;25036;53.638;10.134;2022-07-29T00:53:58;1.58;;;0.80;;
39322;SDS011;25036;53.638;10.134;2022-07-29T00:54:58;3.80;;;0.90;;
39322;SDS011;25036;53.638;10.134;2022-07-29T00:55:58;1.37;;;0.90;;
39322;SDS011;25036;53.638;10.134;2022-07-29T00:56:58;1.38;;;0.80;;
39322;SDS011;25036;53.638;10.134;2022-07-29T00:57:58;2.05;;;0.90;;
39322;SDS011;25036;53.638;10.134;2022-07-29T00:58:59;1.98;;;0.90;;
39322;SDS011;25036;53.638;10.134;2022-07-29T00:59:59;1.48;;;0.85;;
39322;SDS011;25036;53.638;10.134;2022-07-29T01:00:59;1.80;;;0.80;;
39322;SDS011;25036;53.638;10.134;2022-07-29T01:02:00;2.23;;;0.80;;
39322;SDS011;25036;53.638;10.134;2022-07-29T01:03:00;1.92;;;0.93;;
39322;SDS011;25036;53.638;10.134;2022-07-29T01:04:00;1.57;;;0.93;;
39322;SDS011;25036;53.638;10.134;2022-07-29T01:05:02;3.58;;;1.00;;
39322;SDS011;25036;53.638;10.134;2022-07-29T01:06:02;1.45;;;0.88;;
39322;SDS011;25036;53.638;10.134;2022-07-29T01:07:02;1.63;;;0.80;;
39322;SDS011;25036;53.638;10.134;2022-07-29T01:08:03;1.00;;;0.75;;
39322;SDS011;25036;53.638;10.134;2022-07-29T01:09:03;2.40;;;1.33;;
39322;SDS011;25036;53.638;10.134;2022-07-29T01:10:03;2.97;;;0.90;;
39322;SDS011;25036;53.638;10.134;2022-07-29T01:11:04;1.83;;;0.93;;
39322;SDS011;25036;53.638;10.134;2022-07-29T01:12:04;3.30;;;0.90;;
39322;SDS011;25036;53.638;10.134;2022-07-29T01:13:04;2.72;;;1.40;;
39322;SDS011;25036;53.638;10.134;2022-07-29T01:14:05;2.40;;;0.95;;
39322;SDS011;25036;53.638;10.134;2022-07-29T01:15:07;1.42;;;1.08;;
39322;SDS011;25036;53.638;10.134;2022-07-29T01:16:10;1.83;;;1.13;;
39322;SDS011;25036;53.638;10.134;2022-07-29T01:17:19;2.60;;;1.20;;
39322;SDS011;25036;53.638;10.134;2022-07-29T01:18:22;1.77;;;1.00;;
39322;SDS011;25036;53.638;10.134;2022-07-29T01:22:48;2.23;;;1.00;;
39322;SDS011;25036;53.638;10.134;2022-07-29T01:24:07;5.38;;;1.20;;
39322;SDS011;25036;53.638;10.134;2022-07-29T01:25:20;2.05;;;1.00;;
39322;SDS011;25036;53.638;10.134;2022-07-29T01:27:41;4.13;;;0.93;;
39322;SDS011;25036;53.638;10.134;2022-07-29T01:28:47;2.30;;;1.35;;
39322;SDS011;25036;53.638;10.134;2022-07-29T01:29:49;3.15;;;0.90;;
39322;SDS011;25036;53.638;10.134;2022-07-29T01:30:52;2.92;;;0.88;;
39322;SDS011;25036;53.638;10.134;2022-07-29T01:33:03;1.13;;;0.90;;
39322;SDS011;25036;53.638;10.134;2022-07-29T01:34:07;2.58;;;1.05;;
39322;SDS011;25036;53.638;10.134;2022-07-29T01:35:19;2.05;;;1.17;;
39322;SDS011;25036;53.638;10.134;2022-07-29T01:36:43;1.75;;;0.90;;
39322;SDS011;25036;53.638;10.134;2022-07-29T01:37:48;3.88;;;1.17;;
39322;SDS011;25036;53.638;10.134;2022-07-29T01:38:59;1.48;;;0.98;;
39322;SDS011;25036;53.638;10.134;2022-07-29T01:40:02;1.75;;;0.88;;
39322;SDS011;25036;53.638;10.134;2022-07-29T01:41:05;3.45;;;1.08;;
39322;SDS011;25036;53.638;10.134;2022-07-29T01:43:11;2.08;;;1.13;;
39322;SDS011;25036;53.638;10.134;2022-07-29T01:44:14;2.10;;;0.80;;
39322;SDS011;25036;53.638;10.134;2022-07-29T01:46:35;2.03;;;1.10;;
39322;SDS011;25036;53.638;10.134;2022-07-29T01:47:40;1.52;;;0.77;;
39322;SDS011;25036;53.638;10.134;2022-07-29T01:49:43;0.73;;;0.73;;
39322;SDS011;25036;53.638;10.134;2022-07-29T01:50:50;3.40;;;1.00;;
39322;SDS011;25036;53.638;10.134;2022-07-29T01:51:52;2.25;;;1.13;;
39322;SDS011;25036;53.638;10.134;2022-07-29T01:52:54;3.03;;;1.23;;
39322;SDS011;25036;53.638;10.134;2022-07-29T01:54:05;1.98;;;1.20;;
39322;SDS011;25036;53.638;10.134;2022-07-29T01:55:07;2.10;;;1.10;;
39322;SDS011;25036;53.638;10.134;2022-07-29T01:56:09;4.63;;;1.05;;
39322;SDS011;25036;53.638;10.134;2022-07-29T01:57:11;2.55;;;1.23;;
39322;SDS011;25036;53.638;10.134;2022-07-29T01:58:13;2.35;;;0.93;;
39322;SDS011;25036;53.638;10.134;2022-07-29T01:59:14;2.85;;;1.17;;
39322;SDS011;25036;53.638;10.134;2022-07-29T02:00:15;5.00;;;1.30;;
39322;SDS011;25036;53.638;10.134;2022-07-29T02:01:15;2.25;;;1.05;;
39322;SDS011;25036;53.638;10.134;2022-07-29T02:02:16;3.38;;;1.38;;
39322;SDS011;25036;53.638;10.134;2022-07-29T02:03:18;3.53;;;1.60;;
39322;SDS011;25036;53.638;10.134;2022-07-29T02:04:18;3.08;;;1.08;;
39322;SDS011;25036;53.638;10.134;2022-07-29T02:05:19;2.05;;;1.10;;
39322;SDS011;25036;53.638;10.134;2022-07-29T02:06:21;2.50;;;1.00;;
39322;SDS011;25036;53.638;10.134;2022-07-29T02:07:22;2.42;;;1.10;;
39322;SDS011;25036;53.638;10.134;2022-07-29T02:08:23;1.77;;;0.93;;
39322;SDS011;25036;53.638;10.134;2022-07-29T02:09:24;1.98;;;1.00;;
39322;SDS011;25036;53.638;10.134;2022-07-29T02:10:27;2.70;;;1.23;;
39322;SDS011;25036;53.638;10.134;2022-07-29T02:11:27;4.07;;;1.33;;
39322;SDS011;25036;53.638;10.134;2022-07-29T02:12:28;2.33;;;1.15;;
39322;SDS011;25036;53.638;10.134;2022-07-29T02:13:29;4.47;;;1.40;;
39322;SDS011;25036;53.638;10.134;2022-07-29T02:14:40;3.45;;;1.00;;
39322;SDS011;25036;53.638;10.134;2022-07-29T02:16:41;3.23;;;1.07;;
39322;SDS011;25036;53.638;10.134;2022-07-29T02:17:43;3.00;;;1.10;;
39322;SDS011;25036;53.638;10.134;2022-07-29T02:18:45;3.58;;;1.30;;
39322;SDS011;25036;53.638;10.134;2022-07-29T02:19:47;3.67;;;1.77;;
39322;SDS011;25036;53.638;10.134;2022-07-29T02:20:49;3.20;;;1.20;;
39322;SDS011;25036;53.638;10.134;2022-07-29T02:21:51;6.70;;;1.33;;
39322;SDS011;25036;53.638;10.134;2022-07-29T02:22:52;2.08;;;1.30;;
39322;SDS011;25036;53.638;10.134;2022-07-29T02:23:52;3.88;;;1.25;;
39322;SDS011;25036;53.638;10.134;2022-07-29T02:24:53;1.70;;;1.02;;
39322;SDS011;25036;53.638;10.134;2022-07-29T02:25:55;2.35;;;1.08;;
39322;SDS011;25036;53.638;10.134;2022-07-29T02:26:56;2.47;;;1.30;;
39322;SDS011;25036;53.638;10.134;2022-07-29T02:27:57;2.53;;;1.20;;
39322;SDS011;25036;53.638;10.134;2022-07-29T02:28:58;2.85;;;1.35;;
39322;SDS011;25036;53.638;10.134;2022-07-29T02:30:00;2.92;;;1.25;;
39322;SDS011;25036;53.638;10.134;2022-07-29T02:31:01;2.85;;;1.42;;
39322;SDS011;25036;53.638;10.134;2022-07-29T02:32:02;2.35;;;1.10;;
39322;SDS011;25036;53.638;10.134;2022-07-29T02:33:03;3.50;;;1.35;;
39322;SDS011;25036;53.638;10.134;2022-07-29T02:34:04;2.75;;;1.10;;
39322;SDS011;25036;53.638;10.134;2022-07-29T02:35:06;2.20;;;1.02;;
39322;SDS011;25036;53.638;10.134;2022-07-29T02:36:07;3.88;;;1.15;;
39322;SDS011;25036;53.638;10.134;2022-07-29T02:37:08;3.90;;;1.40;;
39322;SDS011;25036;53.638;10.134;2022-07-29T02:38:10;2.95;;;1.35;;
39322;SDS011;25036;53.638;10.134;2022-07-29T02:39:30;4.22;;;1.75;;
39322;SDS011;25036;53.638;10.134;2022-07-29T02:40:32;3.08;;;1.60;;
39322;SDS011;25036;53.638;10.134;2022-07-29T02:41:35;2.97;;;1.05;;
39322;SDS011;25036;53.638;10.134;2022-07-29T02:42:37;2.15;;;1.48;;
39322;SDS011;25036;53.638;10.134;2022-07-29T02:43:38;3.33;;;1.77;;
39322;SDS011;25036;53.638;10.134;2022-07-29T02:44:39;2.95;;;1.63;;
39322;SDS011;25036;53.638;10.134;2022-07-29T02:45:39;4.00;;;1.50;;
39322;SDS011;25036;53.638;10.134;2022-07-29T02:46:45;2.60;;;1.23;;
39322;SDS011;25036;53.638;10.134;2022-07-29T02:47:47;5.18;;;1.38;;
39322;SDS011;25036;53.638;10.134;2022-07-29T02:50:12;3.03;;;1.15;;
39322;SDS011;25036;53.638;10.134;2022-07-29T02:51:37;2.78;;;1.50;;
39322;SDS011;25036;53.638;10.134;2022-07-29T02:53:33;3.70;;;1.63;;
39322;SDS011;25036;53.638;10.134;2022-07-29T02:54:54;2.22;;;1.13;;
39322;SDS011;25036;53.638;10.134;2022-07-29T02:55:56;2.80;;;1.27;;
39322;SDS011;25036;53.638;10.134;2022-07-29T02:56:58;2.53;;;1.40;;
39322;SDS011;25036;53.638;10.134;2022-07-29T02:59:17;3.35;;;1.30;;
39322;SDS011;25036;53.638;10.134;2022-07-29T03:00:20;3.92;;;1.40;;
39322;SDS011;25036;53.638;10.134;2022-07-29T03:01:22;2.33;;;1.20;;
39322;SDS011;25036;53.638;10.134;2022-07-29T03:02:22;2.92;;;1.45;;
39322;SDS011;25036;53.638;10.134;2022-07-29T03:03:25;2.80;;;1.30;;
39322;SDS011;25036;53.638;10.134;2022-07-29T03:04:26;2.00;;;1.30;;
39322;SDS011;25036;53.638;10.134;2022-07-29T03:05:28;6.32;;;1.65;;
39322;SDS011;25036;53.638;10.134;2022-07-29T03:06:29;3.13;;;1.30;;
39322;SDS011;25036;53.638;10.134;2022-07-29T03:07:30;3.03;;;1.20;;
39322;SDS011;25036;53.638;10.134;2022-07-29T03:08:31;3.95;;;1.80;;
39322;SDS011;25036;53.638;10.134;2022-07-29T03:09:32;2.78;;;1.27;;
39322;SDS011;25036;53.638;10.134;2022-07-29T03:10:32;2.67;;;1.30;;
39322;SDS011;25036;53.638;10.134;2022-07-29T03:11:33;2.03;;;1.20;;
39322;SDS011;25036;53.638;10.134;2022-07-29T03:12:34;3.40;;;1.15;;
39322;SDS011;25036;53.638;10.134;2022-07-29T03:13:35;3.15;;;1.25;;
39322;SDS011;25036;53.638;10.134;2022-07-29T03:14:36;4.10;;;1.77;;
39322;SDS011;25036;53.638;10.134;2022-07-29T03:15:36;5.55;;;1.67;;
39322;SDS011;25036;53.638;10.134;2022-07-29T03:16:37;1.52;;;1.20;;
39322;SDS011;25036;53.638;10.134;2022-07-29T03:17:37;2.50;;;1.17;;
39322;SDS011;25036;53.638;10.134;2022-07-29T03:18:37;3.10;;;1.23;;
39322;SDS011;25036;53.638;10.134;2022-07-29T03:19:38;2.97;;;1.33;;
39322;SDS011;25036;53.638;10.134;2022-07-29T03:20:38;3.67;;;1.50;;
39322;SDS011;25036;53.638;10.134;2022-07-29T03:21:38;3.10;;;1.67;;
39322;SDS011;25036;53.638;10.134;2022-07-29T03:22:39;3.03;;;1.30;;
39322;SDS011;25036;53.638;10.134;2022-07-29T03:23:43;3.42;;;1.52;;
39322;SDS011;25036;53.638;10.134;2022-07-29T03:24:45;3.80;;;1.30;;
39322;SDS011;25036;53.638;10.134;2022-07-29T03:25:45;3.63;;;1.50;;
39322;SDS011;25036;53.638;10.134;2022-07-29T03:26:45;3.13;;;1.40;;
39322;SDS011;25036;53.638;10.134;2022-07-29T03:27:46;2.60;;;1.30;;
39322;SDS011;25036;53.638;10.134;2022-07-29T03:28:46;6.22;;;2.15;;
39322;SDS011;25036;53.638;10.134;2022-07-29T03:29:47;2.25;;;1.27;;
39322;SDS011;25036;53.638;10.134;2022-07-29T03:30:47;3.85;;;1.60;;
39322;SDS011;25036;53.638;10.134;2022-07-29T03:31:47;2.60;;;1.50;;
39322;SDS011;25036;53.638;10.134;2022-07-29T03:32:47;2.33;;;1.50;;
39322;SDS011;25036;53.638;10.134;2022-07-29T03:33:48;3.67;;;1.35;;
39322;SDS011;25036;53.638;10.134;2022-07-29T03:34:48;3.07;;;1.60;;
39322;SDS011;25036;53.638;10.134;2022-07-29T03:35:48;2.00;;;1.30;;
39322;SDS011;25036;53.638;10.134;2022-07-29T03:36:48;3.72;;;1.35;;
39322;SDS011;25036;53.638;10.134;2022-07-29T03:37:49;2.80;;;1.45;;
39322;SDS011;25036;53.638;10.134;2022-07-29T03:38:49;4.00;;;1.40;;
39322;SDS011;25036;53.638;10.134;2022-07-29T03:39:49;2.13;;;1.55;;
39322;SDS011;25036;53.638;10.134;2022-07-29T03:40:54;4.43;;;1.33;;
39322;SDS011;25036;53.638;10.134;2022-07-29T03:41:55;3.72;;;1.80;;
39322;SDS011;25036;53.638;10.134;2022-07-29T03:42:56;3.42;;;1.58;;
39322;SDS011;25036;53.638;10.134;2022-07-29T03:43:59;3.78;;;2.25;;
39322;SDS011;25036;53.638;10.134;2022-07-29T03:45:00;4.47;;;1.60;;
39322;SDS011;25036;53.638;10.134;2022-07-29T03:46:01;4.20;;;1.55;;
39322;SDS011;25036;53.638;10.134;2022-07-29T03:47:02;2.42;;;1.40;;
39322;SDS011;25036;53.638;10.134;2022-07-29T03:48:08;2.78;;;1.38;;
39322;SDS011;25036;53.638;10.134;2022-07-29T03:49:10;2.33;;;1.63;;
39322;SDS011;25036;53.638;10.134;2022-07-29T03:50:12;4.70;;;1.60;;
39322;SDS011;25036;53.638;10.134;2022-07-29T03:51:13;3.83;;;1.50;;
39322;SDS011;25036;53.638;10.134;2022-07-29T03:52:14;2.78;;;1.52;;
39322;SDS011;25036;53.638;10.134;2022-07-29T03:53:14;3.92;;;1.63;;
39322;SDS011;25036;53.638;10.134;2022-07-29T03:54:15;2.00;;;1.25;;
39322;SDS011;25036;53.638;10.134;2022-07-29T03:55:15;3.38;;;1.83;;
39322;SDS011;25036;53.638;10.134;2022-07-29T03:56:16;3.17;;;1.55;;
39322;SDS011;25036;53.638;10.134;2022-07-29T03:57:16;2.80;;;1.48;;
39322;SDS011;25036;53.638;10.134;2022-07-29T03:58:18;3.03;;;1.27;;
39322;SDS011;25036;53.638;10.134;2022-07-29T03:59:18;2.83;;;1.50;;
39322;SDS011;25036;53.638;10.134;2022-07-29T04:00:21;3.22;;;1.60;;
39322;SDS011;25036;53.638;10.134;2022-07-29T04:01:21;4.50;;;1.70;;
39322;SDS011;25036;53.638;10.134;2022-07-29T04:02:22;3.17;;;1.77;;
39322;SDS011;25036;53.638;10.134;2022-07-29T04:03:22;3.67;;;1.70;;
39322;SDS011;25036;53.638;10.134;2022-07-29T04:04:23;3.55;;;1.75;;
39322;SDS011;25036;53.638;10.134;2022-07-29T04:05:23;3.33;;;1.70;;
39322;SDS011;25036;53.638;10.134;2022-07-29T04:06:23;2.53;;;1.55;;
39322;SDS011;25036;53.638;10.134;2022-07-29T04:07:23;4.80;;;1.50;;
39322;SDS011;25036;53.638;10.134;2022-07-29T04:08:23;2.70;;;1.37;;
39322;SDS011;25036;53.638;10.134;2022-07-29T04:09:23;2.83;;;1.50;;
39322;SDS011;25036;53.638;10.134;2022-07-29T04:10:23;2.50;;;1.40;;
39322;SDS011;25036;53.638;10.134;2022-07-29T04:11:24;5.67;;;1.93;;
39322;SDS011;25036;53.638;10.134;2022-07-29T04:12:24;2.33;;;1.50;;
39322;SDS011;25036;53.638;10.134;2022-07-29T04:13:24;4.05;;;1.58;;
39322;SDS011;25036;53.638;10.134;2022-07-29T04:14:24;3.13;;;1.33;;
39322;SDS011;25036;53.638;10.134;2022-07-29T04:15:24;4.63;;;1.60;;
39322;SDS011;25036;53.638;10.134;2022-07-29T04:16:24;2.15;;;1.40;;
39322;SDS011;25036;53.638;10.134;2022-07-29T04:17:24;3.77;;;1.77;;
39322;SDS011;25036;53.638;10.134;2022-07-29T04:18:25;2.70;;;1.40;;
39322;SDS011;25036;53.638;10.134;2022-07-29T04:19:25;3.30;;;1.67;;
39322;SDS011;25036;53.638;10.134;2022-07-29T04:20:25;3.47;;;1.33;;
39322;SDS011;25036;53.638;10.134;2022-07-29T04:21:25;3.28;;;1.30;;
39322;SDS011;25036;53.638;10.134;2022-07-29T04:22:26;2.75;;;1.55;;
39322;SDS011;25036;53.638;10.134;2022-07-29T04:23:27;3.47;;;1.70;;
39322;SDS011;25036;53.638;10.134;2022-07-29T04:24:27;4.45;;;1.65;;
39322;SDS011;25036;53.638;10.134;2022-07-29T04:25:28;2.42;;;1.55;;
39322;SDS011;25036;53.638;10.134;2022-07-29T04:26:28;1.90;;;1.43;;
39322;SDS011;25036;53.638;10.134;2022-07-29T04:27:28;2.67;;;1.50;;
39322;SDS011;25036;53.638;10.134;2022-07-29T04:28:28;3.53;;;1.47;;
39322;SDS011;25036;53.638;10.134;2022-07-29T04:29:28;2.90;;;1.50;;
39322;SDS011;25036;53.638;10.134;2022-07-29T04:30:29;4.90;;;1.77;;
39322;SDS011;25036;53.638;10.134;2022-07-29T04:31:30;2.85;;;1.35;;
39322;SDS011;25036;53.638;10.134;2022-07-29T04:32:30;3.57;;;1.70;;
39322;SDS011;25036;53.638;10.134;2022-07-29T04:33:31;3.80;;;1.95;;
39322;SDS011;25036;53.638;10.134;2022-07-29T04:34:31;3.73;;;1.73;;
39322;SDS011;25036;53.638;10.134;2022-07-29T04:35:33;2.27;;;1.50;;
39322;SDS011;25036;53.638;10.134;2022-07-29T04:36:33;2.42;;;1.50;;
39322;SDS011;25036;53.638;10.134;2022-07-29T04:37:33;2.87;;;1.20;;
39322;SDS011;25036;53.638;10.134;2022-07-29T04:38:33;4.70;;;1.63;;
39322;SDS011;25036;53.638;10.134;2022-07-29T04:39:34;2.92;;;1.55;;
39322;SDS011;25036;53.638;10.134;2022-07-29T04:40:34;2.53;;;1.63;;
39322;SDS011;25036;53.638;10.134;2022-07-29T04:41:34;3.78;;;1.58;;
39322;SDS011;25036;53.638;10.134;2022-07-29T04:42:34;3.83;;;1.48;;
39322;SDS011;25036;53.638;10.134;2022-07-29T04:43:35;3.97;;;1.43;;
39322;SDS011;25036;53.638;10.134;2022-07-29T04:44:35;2.45;;;1.80;;
39322;SDS011;25036;53.638;10.134;2022-07-29T04:45:35;2.77;;;1.17;;
39322;SDS011;25036;53.638;10.134;2022-07-29T04:46:35;2.33;;;1.50;;
39322;SDS011;25036;53.638;10.134;2022-07-29T04:47:35;2.20;;;1.33;;
39322;SDS011;25036;53.638;10.134;2022-07-29T04:48:36;2.47;;;1.60;;
39322;SDS011;25036;53.638;10.134;2022-07-29T04:49:39;3.85;;;1.42;;
39322;SDS011;25036;53.638;10.134;2022-07-29T04:50:39;3.05;;;1.75;;
39322;SDS011;25036;53.638;10.134;2022-07-29T04:51:39;2.63;;;1.60;;
39322;SDS011;25036;53.638;10.134;2022-07-29T04:52:40;4.80;;;1.80;;
39322;SDS011;25036;53.638;10.134;2022-07-29T04:53:40;3.00;;;1.30;;
39322;SDS011;25036;53.638;10.134;2022-07-29T04:54:40;2.63;;;1.33;;
39322;SDS011;25036;53.638;10.134;2022-07-29T04:55:40;2.83;;;1.50;;
39322;SDS011;25036;53.638;10.134;2022-07-29T04:56:40;2.70;;;1.33;;
39322;SDS011;25036;53.638;10.134;2022-07-29T04:57:41;3.75;;;1.40;;
39322;SDS011;25036;53.638;10.134;2022-07-29T04:58:41;2.57;;;1.67;;
39322;SDS011;25036;53.638;10.134;2022-07-29T04:59:41;2.30;;;1.30;;
39322;SDS011;25036;53.638;10.134;2022-07-29T05:00:42;6.17;;;1.87;;
39322;SDS011;25036;53.638;10.134;2022-07-29T05:01:42;3.33;;;1.50;;
39322;SDS011;25036;53.638;10.134;2022-07-29T05:02:42;2.92;;;1.48;;
39322;SDS011;25036;53.638;10.134;2022-07-29T05:03:43;2.40;;;1.50;;
39322;SDS011;25036;53.638;10.134;2022-07-29T05:04:43;3.28;;;1.42;;
39322;SDS011;25036;53.638;10.134;2022-07-29T05:05:43;4.13;;;1.90;;
39322;SDS011;25036;53.638;10.134;2022-07-29T05:06:43;4.72;;;1.80;;
39322;SDS011;25036;53.638;10.134;2022-07-29T05:07:43;3.70;;;1.37;;
39322;SDS011;25036;53.638;10.134;2022-07-29T05:08:43;2.90;;;1.60;;
39322;SDS011;25036;53.638;10.134;2022-07-29T05:09:44;3.10;;;1.40;;
39322;SDS011;25036;53.638;10.134;2022-07-29T05:10:44;2.83;;;1.45;;
39322;SDS011;25036;53.638;10.134;2022-07-29T05:11:44;3.70;;;1.50;;
39322;SDS011;25036;53.638;10.134;2022-07-29T05:12:45;2.28;;;1.35;;
39322;SDS011;25036;53.638;10.134;2022-07-29T05:13:45;3.70;;;1.80;;
39322;SDS011;25036;53.638;10.134;2022-07-29T05:14:45;3.50;;;1.40;;
39322;SDS011;25036;53.638;10.134;2022-07-29T05:15:45;3.67;;;1.63;;
39322;SDS011;25036;53.638;10.134;2022-07-29T05:16:45;4.03;;;1.60;;
39322;SDS011;25036;53.638;10.134;2022-07-29T05:17:45;3.50;;;1.50;;
39322;SDS011;25036;53.638;10.134;2022-07-29T05:18:45;3.33;;;1.37;;
39322;SDS011;25036;53.638;10.134;2022-07-29T05:19:46;3.28;;;1.50;;
39322;SDS011;25036;53.638;10.134;2022-07-29T05:20:46;2.97;;;1.53;;
39322;SDS011;25036;53.638;10.134;2022-07-29T05:21:46;3.10;;;1.50;;
39322;SDS011;25036;53.638;10.134;2022-07-29T05:22:46;3.10;;;1.70;;
39322;SDS011;25036;53.638;10.134;2022-07-29T05:23:46;2.63;;;1.20;;
39322;SDS011;25036;53.638;10.134;2022-07-29T05:24:46;4.30;;;1.83;;
39322;SDS011;25036;53.638;10.134;2022-07-29T05:25:46;4.20;;;1.40;;
39322;SDS011;25036;53.638;10.134;2022-07-29T05:26:47;4.78;;;1.73;;
39322;SDS011;25036;53.638;10.134;2022-07-29T05:27:47;4.77;;;1.60;;
39322;SDS011;25036;53.638;10.134;2022-07-29T05:28:47;3.00;;;1.55;;
39322;SDS011;25036;53.638;10.134;2022-07-29T05:29:47;5.28;;;1.65;;
39322;SDS011;25036;53.638;10.134;2022-07-29T05:30:48;2.58;;;1.38;;
39322;SDS011;25036;53.638;10.134;2022-07-29T05:31:49;4.53;;;1.73;;
39322;SDS011;25036;53.638;10.134;2022-07-29T05:32:50;4.80;;;1.42;;
39322;SDS011;25036;53.638;10.134;2022-07-29T05:33:51;2.83;;;1.50;;
39322;SDS011;25036;53.638;10.134;2022-07-29T05:34:51;4.43;;;1.60;;
39322;SDS011;25036;53.638;10.134;2022-07-29T05:35:51;2.47;;;1.30;;
39322;SDS011;25036;53.638;10.134;2022-07-29T05:36:51;2.27;;;1.77;;
39322;SDS011;25036;53.638;10.134;2022-07-29T05:37:51;3.42;;;1.33;;
39322;SDS011;25036;53.638;10.134;2022-07-29T05:38:51;2.57;;;1.57;;
39322;SDS011;25036;53.638;10.134;2022-07-29T05:39:54;4.22;;;1.38;;
39322;SDS011;25036;53.638;10.134;2022-07-29T05:40:56;2.27;;;1.43;;
39322;SDS011;25036;53.638;10.134;2022-07-29T05:41:56;3.75;;;1.85;;
39322;SDS011;25036;53.638;10.134;2022-07-29T05:42:59;3.42;;;1.98;;
39322;SDS011;25036;53.638;10.134;2022-07-29T05:43:59;3.60;;;1.73;;
39322;SDS011;25036;53.638;10.134;2022-07-29T05:45:00;3.58;;;1.70;;
39322;SDS011;25036;53.638;10.134;2022-07-29T05:46:00;3.28;;;1.63;;
39322;SDS011;25036;53.638;10.134;2022-07-29T05:47:00;1.97;;;1.30;;
39322;SDS011;25036;53.638;10.134;2022-07-29T05:48:01;3.37;;;1.70;;
39322;SDS011;25036;53.638;10.134;2022-07-29T05:49:01;4.33;;;2.20;;
39322;SDS011;25036;53.638;10.134;2022-07-29T05:50:02;4.18;;;1.70;;
39322;SDS011;25036;53.638;10.134;2022-07-29T05:51:03;2.80;;;1.48;;
39322;SDS011;25036;53.638;10.134;2022-07-29T05:52:04;5.78;;;1.65;;
39322;SDS011;25036;53.638;10.134;2022-07-29T05:53:04;2.97;;;1.80;;
39322;SDS011;25036;53.638;10.134;2022-07-29T05:54:05;2.88;;;1.88;;
39322;SDS011;25036;53.638;10.134;2022-07-29T05:55:05;4.63;;;1.93;;
39322;SDS011;25036;53.638;10.134;2022-07-29T05:56:05;2.47;;;1.55;;
39322;SDS011;25036;53.638;10.134;2022-07-29T05:57:06;2.92;;;1.58;;
39322;SDS011;25036;53.638;10.134;2022-07-29T05:58:06;5.60;;;1.60;;
39322;SDS011;25036;53.638;10.134;2022-07-29T05:59:06;4.13;;;1.60;;
39322;SDS011;25036;53.638;10.134;2022-07-29T06:00:07;4.32;;;1.55;;
39322;SDS011;25036;53.638;10.134;2022-07-29T06:01:07;3.35;;;1.52;;
39322;SDS011;25036;53.638;10.134;2022-07-29T06:02:07;2.47;;;1.37;;
39322;SDS011;25036;53.638;10.134;2022-07-29T06:03:07;2.20;;;1.17;;
39322;SDS011;25036;53.638;10.134;2022-07-29T06:04:08;3.10;;;1.27;;
39322;SDS011;25036;53.638;10.134;2022-07-29T06:05:08;4.25;;;1.48;;
39322;SDS011;25036;53.638;10.134;2022-07-29T06:06:08;3.45;;;1.50;;
39322;SDS011;25036;53.638;10.134;2022-07-29T06:07:09;4.10;;;1.60;;
39322;SDS011;25036;53.638;10.134;2022-07-29T06:08:09;2.70;;;1.27;;
39322;SDS011;25036;53.638;10.134;2022-07-29T06:09:09;2.73;;;1.43;;
39322;SDS011;25036;53.638;10.134;2022-07-29T06:10:09;4.33;;;1.53;;
39322;SDS011;25036;53.638;10.134;2022-07-29T06:11:10;4.03;;;1.73;;
39322;SDS011;25036;53.638;10.134;2022-07-29T06:12:10;2.78;;;1.38;;
39322;SDS011;25036;53.638;10.134;2022-07-29T06:13:11;4.05;;;1.45;;
39322;SDS011;25036;53.638;10.134;2022-07-29T06:14:11;4.32;;;1.70;;
39322;SDS011;25036;53.638;10.134;2022-07-29T06:15:11;3.83;;;1.40;;
39322;SDS011;25036;53.638;10.134;2022-07-29T06:16:11;4.30;;;1.50;;
39322;SDS011;25036;53.638;10.134;2022-07-29T06:17:11;3.93;;;1.80;;